createdAt,value
2019-04-26T00:02:30.193Z,36.00
2019-04-26T00:05:00.467Z,36.00
2019-04-26T00:07:29.709Z,36.00
2019-04-26T00:10:00.590Z,36.00
2019-04-26T00:13:02.931Z,36.00
2019-04-26T00:15:52.268Z,36.00
2019-04-26T00:18:21.532Z,36.00
2019-04-26T00:20:50.822Z,36.10
2019-04-26T00:23:22.451Z,36.00
2019-04-26T00:25:51.252Z,36.00
2019-04-26T00:28:21.172Z,36.10
2019-04-26T00:30:50.600Z,36.00
2019-04-26T00:33:19.914Z,36.10
2019-04-26T00:35:49.289Z,36.00
2019-04-26T00:38:18.567Z,36.10
2019-04-26T00:40:48.154Z,36.00
2019-04-26T00:43:18.442Z,36.10
2019-04-26T00:45:49.106Z,36.00
2019-04-26T00:48:19.000Z,36.10
2019-04-26T00:50:49.561Z,36.00
2019-04-26T00:53:19.625Z,36.10
2019-04-26T00:55:49.004Z,36.00
2019-04-26T00:58:18.643Z,36.10
2019-04-26T01:00:48.948Z,36.10
2019-04-26T01:03:18.654Z,36.00
2019-04-26T01:05:59.546Z,36.60
2019-04-26T01:08:19.216Z,36.00
2019-04-26T01:10:48.549Z,36.00
2019-04-26T01:13:17.896Z,36.00
2019-04-26T01:15:47.240Z,35.90
2019-04-26T01:18:16.840Z,36.00
2019-04-26T01:20:46.171Z,35.90
2019-04-26T01:23:17.420Z,36.00
2019-04-26T01:26:15.400Z,35.90
2019-04-26T01:28:49.566Z,35.90
2019-04-26T01:31:19.878Z,36.00
2019-04-26T01:34:01.164Z,35.90
2019-04-26T01:36:30.668Z,36.00
2019-04-26T01:39:07.850Z,36.00
2019-04-26T01:41:42.007Z,35.90
2019-04-26T01:44:24.983Z,36.00
2019-04-26T01:46:54.568Z,36.00
2019-04-26T01:49:24.219Z,35.90
2019-04-26T01:51:59.273Z,35.90
2019-04-26T01:54:29.872Z,36.00
2019-04-26T01:57:02.318Z,35.90
2019-04-26T01:59:31.611Z,35.90
2019-04-26T02:02:21.282Z,35.90
2019-04-26T02:04:59.486Z,35.90
2019-04-26T02:07:41.039Z,35.90
2019-04-26T02:10:15.515Z,35.90
2019-04-26T02:12:46.134Z,35.90
2019-04-26T02:15:15.741Z,35.90
2019-04-26T02:17:45.688Z,35.90
2019-04-26T02:20:18.259Z,36.00
2019-04-26T02:22:55.056Z,35.90
2019-04-26T02:25:24.626Z,35.90
2019-04-26T02:27:54.011Z,35.90
2019-04-26T02:30:26.316Z,35.90
2019-04-26T02:32:54.371Z,35.90
2019-04-26T02:35:23.654Z,35.90
2019-04-26T02:37:53.057Z,35.90
2019-04-26T02:40:22.334Z,35.90
2019-04-26T02:42:51.672Z,35.90
2019-04-26T02:45:36.266Z,36.00
2019-04-26T02:48:27.119Z,35.90
2019-04-26T02:51:06.454Z,35.80
2019-04-26T02:53:41.571Z,35.80
2019-04-26T02:56:16.448Z,35.80
2019-04-26T02:58:58.754Z,35.80
2019-04-26T03:01:29.541Z,35.90
2019-04-26T03:03:59.378Z,35.80
2019-04-26T03:06:30.072Z,35.80
2019-04-26T03:09:00.077Z,35.80
2019-04-26T03:11:33.896Z,35.80
2019-04-26T03:14:11.061Z,35.80
2019-04-26T03:17:06.324Z,35.80
2019-04-26T03:19:46.411Z,35.80
2019-04-26T03:22:36.931Z,35.80
2019-04-26T03:25:12.314Z,35.90
2019-04-26T03:28:05.841Z,35.90
2019-04-26T03:30:48.693Z,35.90
2019-04-26T03:33:36.211Z,35.80
2019-04-26T03:36:25.075Z,36.00
2019-04-26T03:38:59.233Z,36.10
2019-04-26T03:41:35.116Z,36.20
2019-04-26T03:44:13.229Z,36.20
2019-04-26T03:46:48.094Z,36.20
2019-04-26T03:49:23.516Z,36.10
2019-04-26T03:52:16.617Z,36.10
2019-04-26T03:54:46.616Z,36.00
2019-04-26T03:57:49.802Z,36.10
2019-04-26T04:00:23.443Z,36.00
2019-04-26T04:03:00.156Z,36.00
2019-04-26T04:05:41.531Z,36.00
2019-04-26T04:08:12.873Z,36.00
2019-04-26T04:11:10.784Z,36.70
2019-04-26T04:13:50.540Z,36.00
2019-04-26T04:16:23.788Z,36.00
2019-04-26T04:19:15.599Z,36.00
2019-04-26T04:22:09.610Z,36.00
2019-04-26T04:24:49.797Z,36.00
2019-04-26T04:27:25.216Z,36.10
2019-04-26T04:30:12.301Z,36.00
2019-04-26T04:32:52.165Z,36.00
2019-04-26T04:35:22.564Z,36.00
2019-04-26T04:38:11.595Z,36.00
2019-04-26T04:41:16.119Z,36.00
2019-04-26T04:43:55.992Z,35.90
2019-04-26T04:46:52.403Z,36.10
2019-04-26T04:49:32.275Z,37.00
2019-04-26T04:52:10.510Z,37.60
2019-04-26T04:55:06.817Z,36.90
2019-04-26T04:57:43.969Z,36.60
2019-04-26T05:00:18.025Z,36.60
2019-04-26T05:03:11.380Z,36.70
2019-04-26T05:06:07.311Z,36.70
2019-04-26T05:08:37.617Z,36.60
2019-04-26T05:11:13.008Z,36.80
2019-04-26T05:13:48.351Z,37.10
2019-04-26T05:16:45.551Z,37.30
2019-04-26T05:19:46.754Z,37.00
2019-04-26T05:22:37.218Z,37.50
2019-04-26T05:25:17.109Z,37.40
2019-04-26T05:28:08.847Z,37.20
2019-04-26T05:31:18.553Z,37.10
2019-04-26T05:34:08.851Z,37.10
2019-04-26T05:36:47.801Z,37.20
2019-04-26T05:39:26.651Z,37.50
2019-04-26T05:42:19.981Z,38.00
2019-04-26T05:45:08.519Z,37.50
2019-04-26T05:48:04.261Z,37.50
2019-04-26T05:50:59.872Z,38.30
2019-04-26T05:54:11.577Z,37.70
2019-04-26T05:57:07.998Z,38.00
2019-04-26T05:59:53.519Z,38.00
2019-04-26T06:02:59.024Z,37.90
2019-04-26T06:05:56.435Z,37.90
2019-04-26T06:08:36.165Z,37.90
2019-04-26T06:11:11.039Z,38.00
2019-04-26T06:14:00.441Z,37.80
2019-04-26T06:17:02.826Z,38.50
2019-04-26T06:19:42.167Z,39.20
2019-04-26T06:22:35.998Z,38.30
2019-04-26T06:25:28.343Z,39.30
2019-04-26T06:28:09.032Z,39.70
2019-04-26T06:30:47.308Z,39.00
2019-04-26T06:33:22.977Z,39.20
2019-04-26T06:35:54.115Z,38.70
2019-04-26T06:39:06.613Z,38.20
2019-04-26T06:42:02.972Z,38.10
2019-04-26T06:45:02.919Z,38.10
2019-04-26T06:47:40.241Z,38.20
2019-04-26T06:50:19.952Z,38.10
2019-04-26T06:52:52.591Z,38.10
2019-04-26T06:55:23.525Z,38.00
2019-04-26T06:58:21.671Z,38.20
2019-04-26T07:01:05.485Z,38.00
2019-04-26T07:03:46.741Z,38.10
2019-04-26T07:06:39.211Z,38.00
2019-04-26T07:09:11.723Z,38.00
2019-04-26T07:12:14.259Z,38.00
2019-04-26T07:14:52.450Z,37.80
2019-04-26T07:17:27.902Z,37.90
2019-04-26T07:20:31.082Z,37.80
2019-04-26T07:23:41.799Z,37.80
2019-04-26T07:26:47.956Z,38.00
2019-04-26T07:29:32.640Z,37.80
2019-04-26T07:32:18.354Z,37.70
2019-04-26T07:35:20.697Z,37.80
2019-04-26T07:38:27.703Z,37.70
2019-04-26T07:41:10.170Z,37.70
2019-04-26T07:43:49.765Z,37.60
2019-04-26T07:46:37.189Z,37.60
2019-04-26T07:49:29.278Z,37.70
2019-04-26T07:52:19.344Z,37.70
2019-04-26T07:55:25.464Z,37.70
2019-04-26T07:58:13.171Z,37.80
2019-04-26T08:00:59.745Z,38.00
2019-04-26T08:03:40.556Z,38.80
2019-04-26T08:06:15.791Z,38.40
2019-04-26T08:08:48.508Z,38.30
2019-04-26T08:11:38.469Z,38.30
2019-04-26T08:14:21.242Z,38.40
2019-04-26T08:17:06.721Z,38.40
2019-04-26T08:19:57.480Z,38.40
2019-04-26T08:22:28.628Z,38.30
2019-04-26T08:24:58.617Z,38.60
2019-04-26T08:27:27.810Z,38.50
2019-04-26T08:29:58.478Z,38.60
2019-04-26T08:32:32.061Z,38.50
2019-04-26T08:35:08.281Z,38.60
2019-04-26T08:37:44.599Z,38.40
2019-04-26T08:40:25.588Z,38.40
2019-04-26T08:42:57.364Z,38.50
2019-04-26T08:45:30.539Z,38.20
2019-04-26T08:48:17.657Z,38.40
2019-04-26T08:50:50.245Z,38.60
2019-04-26T08:53:19.551Z,38.60
2019-04-26T08:55:48.747Z,38.60
2019-04-26T08:58:18.660Z,38.50
2019-04-26T09:00:58.796Z,38.70
2019-04-26T09:03:32.319Z,38.90
2019-04-26T09:06:05.609Z,38.90
2019-04-26T09:08:35.017Z,38.80
2019-04-26T09:11:05.900Z,38.60
2019-04-26T09:13:37.599Z,38.50
2019-04-26T09:16:09.301Z,38.50
2019-04-26T09:18:43.527Z,38.60
2019-04-26T09:21:09.622Z,38.60
2019-04-26T09:23:56.845Z,38.70
2019-04-26T09:26:30.629Z,38.60
2019-04-26T09:29:17.662Z,38.60
2019-04-26T09:31:50.389Z,38.70
2019-04-26T09:34:21.395Z,38.60
2019-04-26T09:36:53.146Z,38.50
2019-04-26T09:39:23.258Z,37.70
2019-04-26T09:41:57.043Z,37.30
2019-04-26T09:44:30.909Z,37.60
2019-04-26T09:47:04.875Z,37.00
2019-04-26T09:49:41.152Z,37.10
2019-04-26T09:52:11.395Z,36.70
2019-04-26T09:54:40.627Z,36.70
2019-04-26T09:57:10.020Z,36.40
2019-04-26T09:59:40.034Z,36.40
2019-04-26T10:02:13.351Z,36.70
2019-04-26T10:04:42.504Z,36.80
2019-04-26T10:07:12.234Z,36.80
2019-04-26T10:09:43.772Z,36.60
2019-04-26T10:12:17.829Z,36.60
2019-04-26T10:14:57.672Z,36.60
2019-04-26T10:17:31.479Z,37.20
2019-04-26T10:20:00.760Z,36.80
2019-04-26T10:22:31.689Z,36.50
2019-04-26T10:25:02.524Z,36.10
2019-04-26T10:27:36.490Z,36.20
2019-04-26T10:30:09.529Z,35.10
2019-04-26T10:32:39.821Z,35.10
2019-04-26T10:35:10.207Z,35.20
2019-04-26T10:37:39.996Z,35.60
2019-04-26T10:40:11.317Z,35.70
2019-04-26T10:42:42.276Z,35.80
2019-04-26T10:45:14.539Z,35.80
2019-04-26T10:47:43.390Z,35.80
2019-04-26T10:50:12.713Z,35.70
2019-04-26T10:52:49.426Z,35.70
2019-04-26T10:55:22.323Z,35.90
2019-04-26T10:58:09.929Z,35.80
2019-04-26T11:00:58.938Z,36.30
2019-04-26T11:03:28.714Z,35.90
2019-04-26T11:05:58.095Z,35.50
2019-04-26T11:08:27.681Z,35.40
2019-04-26T11:10:57.310Z,35.20
2019-04-26T11:13:27.504Z,35.00
2019-04-26T11:15:56.918Z,34.50
2019-04-26T11:18:27.448Z,34.60
2019-04-26T11:20:57.535Z,34.20
2019-04-26T11:23:26.808Z,34.20
2019-04-26T11:25:57.957Z,34.50
2019-04-26T11:28:26.889Z,34.20
2019-04-26T11:30:57.494Z,34.10
2019-04-26T11:33:26.870Z,34.50
2019-04-26T11:35:56.341Z,34.60
2019-04-26T11:38:26.931Z,33.90
2019-04-26T11:41:05.811Z,32.80
2019-04-26T11:43:28.179Z,33.00
2019-04-26T11:46:04.680Z,32.90
2019-04-26T11:48:31.480Z,32.80
2019-04-26T11:51:01.726Z,32.20
2019-04-26T11:53:33.317Z,32.40
2019-04-26T11:56:04.470Z,32.20
2019-04-26T11:58:34.434Z,32.50
2019-04-26T12:01:05.523Z,31.50
2019-04-26T12:03:34.932Z,31.60
2019-04-26T12:06:09.088Z,31.60
2019-04-26T12:08:46.280Z,30.40
2019-04-26T12:11:18.608Z,31.10
2019-04-26T12:13:46.357Z,31.50
2019-04-26T12:16:18.602Z,31.20
2019-04-26T12:18:52.899Z,30.30
2019-04-26T12:21:19.441Z,30.70
2019-04-26T12:23:51.433Z,30.20
2019-04-26T12:26:26.327Z,30.80
2019-04-26T12:28:57.381Z,30.50
2019-04-26T12:31:27.065Z,30.50
2019-04-26T12:33:57.315Z,30.10
2019-04-26T12:36:28.278Z,30.00
2019-04-26T12:38:58.290Z,30.60
2019-04-26T12:41:39.840Z,30.10
2019-04-26T12:44:05.744Z,30.10
2019-04-26T12:46:43.313Z,30.50
2019-04-26T12:49:14.329Z,30.00
2019-04-26T12:51:47.421Z,31.10
2019-04-26T12:54:21.046Z,30.20
2019-04-26T12:56:56.970Z,29.90
2019-04-26T12:59:26.831Z,29.50
2019-04-26T13:02:05.351Z,29.40
2019-04-26T13:04:35.975Z,29.30
2019-04-26T13:07:06.981Z,29.70
2019-04-26T13:09:38.836Z,29.60
2019-04-26T13:12:12.640Z,29.70
2019-04-26T13:14:59.497Z,29.90
2019-04-26T13:17:31.342Z,29.90
2019-04-26T13:20:01.553Z,30.00
2019-04-26T13:22:45.346Z,30.40
2019-04-26T13:25:04.110Z,30.50
2019-04-26T13:27:41.598Z,30.40
2019-04-26T13:30:12.198Z,30.60
2019-04-26T13:32:43.031Z,30.80
2019-04-26T13:35:14.008Z,31.00
2019-04-26T13:37:44.753Z,31.20
2019-04-26T13:40:15.396Z,31.20
2019-04-26T13:42:47.471Z,30.80
2019-04-26T13:45:33.966Z,31.00
2019-04-26T13:48:22.391Z,30.80
2019-04-26T13:50:53.277Z,30.40
2019-04-26T13:53:25.797Z,30.50
2019-04-26T13:55:53.599Z,30.70
2019-04-26T13:58:25.462Z,30.60
2019-04-26T14:00:53.783Z,30.90
2019-04-26T14:03:27.185Z,31.00
2019-04-26T14:05:54.151Z,31.30
2019-04-26T14:08:23.322Z,31.30
2019-04-26T14:10:52.580Z,31.50
2019-04-26T14:13:24.961Z,31.60
2019-04-26T14:15:55.218Z,31.60
2019-04-26T14:18:24.385Z,31.70
2019-04-26T14:20:58.541Z,32.50
2019-04-26T14:23:27.041Z,31.80
2019-04-26T14:26:18.019Z,31.80
2019-04-26T14:28:54.286Z,31.90
2019-04-26T14:31:21.925Z,32.00
2019-04-26T14:33:51.103Z,32.00
2019-04-26T14:36:22.687Z,31.30
2019-04-26T14:38:51.225Z,31.50
2019-04-26T14:41:22.745Z,31.60
2019-04-26T14:43:52.700Z,31.90
2019-04-26T14:46:23.029Z,31.40
2019-04-26T14:49:01.395Z,31.60
2019-04-26T14:51:24.144Z,31.70
2019-04-26T14:53:54.304Z,31.90
2019-04-26T14:56:24.761Z,31.40
2019-04-26T14:58:56.429Z,31.20
2019-04-26T15:01:43.799Z,31.80
2019-04-26T15:04:33.132Z,31.50
2019-04-26T15:07:05.394Z,31.70
2019-04-26T15:09:36.389Z,31.80
2019-04-26T15:12:07.733Z,32.00
2019-04-26T15:14:35.135Z,31.70
2019-04-26T15:17:04.414Z,31.50
2019-04-26T15:19:35.239Z,31.80
2019-04-26T15:22:10.450Z,31.90
2019-04-26T15:24:38.645Z,31.80
2019-04-26T15:27:07.999Z,31.90
2019-04-26T15:29:38.020Z,31.80
2019-04-26T15:32:07.301Z,31.80
2019-04-26T15:34:36.624Z,31.80
2019-04-26T15:37:05.984Z,31.80
2019-04-26T15:39:36.949Z,31.70
2019-04-26T15:42:29.261Z,32.00
2019-04-26T15:44:57.540Z,31.90
2019-04-26T15:47:44.555Z,31.50
2019-04-26T15:50:15.463Z,31.30
2019-04-26T15:52:44.730Z,30.90
2019-04-26T15:55:14.772Z,30.80
2019-04-26T15:57:44.067Z,30.70
2019-04-26T16:00:13.632Z,30.60
2019-04-26T16:02:42.895Z,30.10
2019-04-26T16:05:12.406Z,30.20
2019-04-26T16:07:42.977Z,30.20
2019-04-26T16:10:13.223Z,30.00
2019-04-26T16:12:42.496Z,30.00
2019-04-26T16:15:14.684Z,30.00
2019-04-26T16:17:42.788Z,30.10
2019-04-26T16:20:13.583Z,30.10
2019-04-26T16:22:43.052Z,30.10
2019-04-26T16:25:12.298Z,30.20
2019-04-26T16:27:43.015Z,30.30
2019-04-26T16:30:16.579Z,30.30
2019-04-26T16:33:00.055Z,30.50
2019-04-26T16:35:29.406Z,30.60
2019-04-26T16:38:00.286Z,30.40
2019-04-26T16:40:29.732Z,30.60
2019-04-26T16:42:59.697Z,30.60
2019-04-26T16:45:29.251Z,30.70
2019-04-26T16:47:58.473Z,30.80
2019-04-26T16:50:31.610Z,30.80
2019-04-26T16:52:58.664Z,30.80
2019-04-26T16:55:27.941Z,30.90
2019-04-26T16:57:58.363Z,30.90
2019-04-26T17:00:47.326Z,30.90
2019-04-26T17:03:03.890Z,31.10
2019-04-26T17:05:45.355Z,31.30
2019-04-26T17:08:05.042Z,31.40
2019-04-26T17:10:33.124Z,32.10
2019-04-26T17:13:03.156Z,32.30
2019-04-26T17:15:34.536Z,31.70
2019-04-26T17:18:03.627Z,31.80
2019-04-26T17:20:33.990Z,32.00
2019-04-26T17:23:12.355Z,31.90
2019-04-26T17:25:46.208Z,32.00
2019-04-26T17:28:18.030Z,32.00
2019-04-26T17:30:46.874Z,32.20
2019-04-26T17:33:16.201Z,32.20
2019-04-26T17:35:45.460Z,32.30
2019-04-26T17:38:14.700Z,32.40
2019-04-26T17:40:46.166Z,32.40
2019-04-26T17:43:15.954Z,32.40
2019-04-26T17:45:45.236Z,32.50
2019-04-26T17:48:14.474Z,32.50
2019-04-26T17:50:45.671Z,32.60
2019-04-26T17:53:26.244Z,32.60
2019-04-26T17:55:50.038Z,32.60
2019-04-26T17:58:17.824Z,32.80
2019-04-26T18:00:47.462Z,32.60
2019-04-26T18:03:17.362Z,32.70
2019-04-26T18:05:56.533Z,32.70
2019-04-26T18:08:35.767Z,32.80
2019-04-26T18:10:48.737Z,32.90
2019-04-26T18:13:17.992Z,32.90
2019-04-26T18:15:48.618Z,33.00
2019-04-26T18:18:36.208Z,32.90
2019-04-26T18:21:23.420Z,33.00
2019-04-26T18:23:57.002Z,33.10
2019-04-26T18:26:24.766Z,33.00
2019-04-26T18:28:55.217Z,32.80
2019-04-26T18:31:28.785Z,33.00
2019-04-26T18:34:00.670Z,33.20
2019-04-26T18:36:27.592Z,33.10
2019-04-26T18:38:57.542Z,33.70
2019-04-26T18:41:28.631Z,33.10
2019-04-26T18:43:59.924Z,33.20
2019-04-26T18:46:35.813Z,33.20
2019-04-26T18:49:04.460Z,33.20
2019-04-26T18:51:33.937Z,33.20
2019-04-26T18:54:09.300Z,33.30
2019-04-26T18:56:40.664Z,33.20
2019-04-26T18:59:11.770Z,33.30
2019-04-26T19:01:42.180Z,33.30
2019-04-26T19:04:14.923Z,33.30
2019-04-26T19:06:43.396Z,33.50
2019-04-26T19:09:13.710Z,33.40
2019-04-26T19:11:48.611Z,33.90
2019-04-26T19:14:15.969Z,33.50
2019-04-26T19:16:50.245Z,33.40
2019-04-26T19:19:28.481Z,33.50
2019-04-26T19:22:00.781Z,33.30
2019-04-26T19:24:30.403Z,33.30
2019-04-26T19:26:59.602Z,33.30
2019-04-26T19:29:33.706Z,33.30
2019-04-26T19:32:02.874Z,33.50
2019-04-26T19:34:31.357Z,33.50
2019-04-26T19:37:01.456Z,33.50
2019-04-26T19:39:35.471Z,33.40
2019-04-26T19:42:06.112Z,33.50
2019-04-26T19:44:34.750Z,33.50
2019-04-26T19:47:08.624Z,33.50
2019-04-26T19:49:56.018Z,33.50
2019-04-26T19:52:27.817Z,33.50
2019-04-26T19:55:11.551Z,33.50
2019-04-26T19:57:43.197Z,33.50
2019-04-26T20:00:13.176Z,33.50
2019-04-26T20:02:42.359Z,33.50
2019-04-26T20:05:11.924Z,33.50
2019-04-26T20:07:41.667Z,33.50
2019-04-26T20:10:12.774Z,33.50
2019-04-26T20:12:41.908Z,33.50
2019-04-26T20:15:25.346Z,33.30
2019-04-26T20:17:44.119Z,33.40
2019-04-26T20:20:20.715Z,33.40
2019-04-26T20:22:44.362Z,33.30
2019-04-26T20:25:14.663Z,33.40
2019-04-26T20:27:43.918Z,33.50
2019-04-26T20:30:24.309Z,33.50
2019-04-26T20:32:52.468Z,33.50
2019-04-26T20:35:26.537Z,33.50
2019-04-26T20:37:56.264Z,33.50
2019-04-26T20:40:25.996Z,33.60
2019-04-26T20:43:01.728Z,33.60
2019-04-26T20:45:38.408Z,33.60
2019-04-26T20:47:57.017Z,33.70
2019-04-26T20:50:33.480Z,33.60
2019-04-26T20:53:01.048Z,33.70
2019-04-26T20:55:34.304Z,33.70
2019-04-26T20:58:05.709Z,33.70
2019-04-26T21:00:36.598Z,33.80
2019-04-26T21:03:06.051Z,33.70
2019-04-26T21:05:45.688Z,33.90
2019-04-26T21:08:05.492Z,33.90
2019-04-26T21:10:36.029Z,33.90
2019-04-26T21:13:05.417Z,33.80
2019-04-26T21:15:36.121Z,33.90
2019-04-26T21:18:05.523Z,33.90
2019-04-26T21:20:36.393Z,34.00
2019-04-26T21:23:06.207Z,34.00
2019-04-26T21:25:53.452Z,34.00
2019-04-26T21:28:33.422Z,34.00
2019-04-26T21:31:16.375Z,34.00
2019-04-26T21:33:59.209Z,34.00
2019-04-26T21:36:36.181Z,34.00
2019-04-26T21:39:13.670Z,34.00
2019-04-26T21:41:48.335Z,34.00
2019-04-26T21:44:15.926Z,34.00
2019-04-26T21:46:45.306Z,34.00
2019-04-26T21:49:20.388Z,34.00
2019-04-26T21:51:51.127Z,33.90
2019-04-26T21:54:18.084Z,34.00
2019-04-26T21:56:49.643Z,34.00
2019-04-26T21:59:18.163Z,33.90
2019-04-26T22:01:51.823Z,33.90
2019-04-26T22:04:18.652Z,34.00
2019-04-26T22:06:47.859Z,34.10
2019-04-26T22:09:33.277Z,34.10
2019-04-26T22:12:01.620Z,34.00
2019-04-26T22:14:34.001Z,34.10
2019-04-26T22:17:07.525Z,34.00
2019-04-26T22:19:43.206Z,34.00
2019-04-26T22:22:28.963Z,33.90
2019-04-26T22:25:03.788Z,34.00
2019-04-26T22:27:32.435Z,34.00
2019-04-26T22:30:03.231Z,34.00
2019-04-26T22:32:33.419Z,34.10
2019-04-26T22:35:03.230Z,34.00
2019-04-26T22:37:33.751Z,34.00
2019-04-26T22:40:04.148Z,34.10
2019-04-26T22:42:39.901Z,34.10
2019-04-26T22:45:17.697Z,34.10
2019-04-26T22:47:51.298Z,34.10
2019-04-26T22:50:22.123Z,34.20
2019-04-26T22:52:53.111Z,34.00
2019-04-26T22:55:27.241Z,34.10
2019-04-26T22:57:53.272Z,34.10
2019-04-26T23:00:27.918Z,34.10
2019-04-26T23:02:58.160Z,34.10
2019-04-26T23:05:26.031Z,34.10
2019-04-26T23:07:59.360Z,34.10
2019-04-26T23:10:31.199Z,34.20
2019-04-26T23:13:04.539Z,34.20
2019-04-26T23:15:43.299Z,34.10
2019-04-26T23:18:30.818Z,34.30
2019-04-26T23:21:17.980Z,34.10
2019-04-26T23:23:47.526Z,34.20
2019-04-26T23:26:16.773Z,34.20
2019-04-26T23:28:45.957Z,34.20
2019-04-26T23:31:15.097Z,34.20
2019-04-26T23:33:44.363Z,34.20
2019-04-26T23:36:13.726Z,34.20
2019-04-26T23:38:43.899Z,34.30
2019-04-26T23:41:14.266Z,34.20
2019-04-26T23:43:43.672Z,34.20
2019-04-26T23:46:14.401Z,34.30
2019-04-26T23:48:48.556Z,34.30
2019-04-26T23:51:14.716Z,34.30
2019-04-26T23:53:43.953Z,34.40
2019-04-26T23:56:16.231Z,34.40
2019-04-26T23:58:45.608Z,34.40
